Time;durP1;ratioP1;P1;durP2;ratioP2;P2;SDS_P1;SDS_P2;PMS_P1;PMS_P2;Temp;Humidity;BMP_temperature;BMP_pressure;BME280_temperature;BME280_humidity;BME280_pressure;Samples;Min_cycle;Max_cycle;Signal;HPM_P1;HPM_P2
2022/10/06 00:02:15;;;;;;;4.72;4.32;;;21.40;66.50;;;;;;5034563;28;20129;-41
2022/10/06 00:04:40;;;;;;;4.78;4.28;;;21.40;66.40;;;;;;5036770;28;20050;-41
2022/10/06 00:07:06;;;;;;;5.22;4.15;;;21.40;66.30;;;;;;5040982;28;20061;-42
2022/10/06 00:09:31;;;;;;;4.22;3.92;;;21.40;66.30;;;;;;5060505;28;20048;-42
2022/10/06 00:11:57;;;;;;;5.47;4.20;;;21.40;66.10;;;;;;5056966;28;21209;-42
2022/10/06 00:14:23;;;;;;;4.95;4.55;;;21.40;66.10;;;;;;5064749;28;20040;-41
2022/10/06 00:16:49;;;;;;;4.57;4.20;;;21.40;66.10;;;;;;5047315;28;20053;-43
2022/10/06 00:19:14;;;;;;;4.22;3.85;;;21.40;66.10;;;;;;5051649;28;20534;-40
2022/10/06 00:21:40;;;;;;;5.13;4.72;;;21.40;66.10;;;;;;5045053;28;20056;-41
2022/10/06 00:24:05;;;;;;;4.15;3.75;;;21.40;66.10;;;;;;5057901;28;20041;-40
2022/10/06 00:26:31;;;;;;;5.10;4.45;;;21.40;66.00;;;;;;5063520;28;20044;-41
2022/10/06 00:28:57;;;;;;;3.97;3.67;;;21.40;65.90;;;;;;5064963;28;20041;-41
2022/10/06 00:31:22;;;;;;;3.90;3.60;;;21.40;66.10;;;;;;5065122;28;20113;-19
2022/10/06 00:33:48;;;;;;;4.30;4.00;;;21.30;66.00;;;;;;5062856;28;20032;-19
2022/10/06 00:36:13;;;;;;;4.32;3.92;;;21.30;66.00;;;;;;5062925;28;20102;-19
2022/10/06 00:38:39;;;;;;;3.88;3.58;;;21.30;65.90;;;;;;5056535;28;20110;-20
2022/10/06 00:41:05;;;;;;;3.95;3.65;;;21.40;66.00;;;;;;5057737;28;20098;-18
2022/10/06 00:43:49;;;;;;;4.65;3.75;;;21.40;65.90;;;;;;5066294;28;20413;-18
2022/10/06 00:46:37;;;;;;;3.90;3.60;;;21.40;65.90;;;;;;5051553;28;20044;-18
2022/10/06 00:49:10;;;;;;;4.00;3.60;;;21.40;65.80;;;;;;5064707;28;20108;-19
2022/10/06 00:51:40;;;;;;;3.83;3.40;;;21.30;65.90;;;;;;5073083;28;20217;-19
2022/10/06 00:54:05;;;;;;;3.88;3.60;;;21.40;65.80;;;;;;5033952;28;20087;-19
2022/10/06 00:56:31;;;;;;;4.13;3.30;;;21.40;65.80;;;;;;5049677;28;20052;-20
2022/10/06 00:58:56;;;;;;;3.63;3.33;;;21.40;65.70;;;;;;5062155;28;20239;-18
2022/10/06 01:01:22;;;;;;;3.72;3.42;;;21.40;65.80;;;;;;5043482;28;20033;-19
2022/10/06 01:03:52;;;;;;;3.80;3.50;;;21.40;66.50;;;;;;5068869;28;20522;-24
2022/10/06 01:06:17;;;;;;;3.30;3.10;;;21.30;65.80;;;;;;5061256;28;20127;-19
2022/10/06 01:08:43;;;;;;;3.10;2.90;;;21.30;65.70;;;;;;5046082;28;20128;-18
2022/10/06 01:11:12;;;;;;;3.25;3.05;;;21.30;65.80;;;;;;5033006;28;20523;-19
2022/10/06 01:13:37;;;;;;;3.10;2.90;;;21.40;65.70;;;;;;5057967;28;20110;-19
2022/10/06 01:16:16;;;;;;;3.22;2.92;;;21.40;65.70;;;;;;5047399;28;20040;-19
2022/10/06 01:18:41;;;;;;;3.13;2.92;;;21.40;65.70;;;;;;5044846;28;20123;-20
2022/10/06 01:21:26;;;;;;;3.00;2.80;;;21.30;65.80;;;;;;5048508;28;20052;-19
2022/10/06 01:23:52;;;;;;;3.05;2.85;;;21.30;65.70;;;;;;5074587;28;20423;-19
2022/10/06 01:26:18;;;;;;;3.05;2.85;;;21.30;65.70;;;;;;5062224;28;20105;-19
2022/10/06 01:28:43;;;;;;;3.03;2.83;;;21.30;65.80;;;;;;5056213;28;20457;-19
2022/10/06 01:31:09;;;;;;;3.58;3.20;;;21.30;65.80;;;;;;5063787;28;20048;-19
2022/10/06 01:33:34;;;;;;;2.90;2.65;;;21.30;65.80;;;;;;5059448;28;20052;-19
2022/10/06 01:36:00;;;;;;;2.80;2.60;;;21.40;65.80;;;;;;5065709;28;20738;-19
2022/10/06 01:38:26;;;;;;;3.25;2.85;;;21.30;65.90;;;;;;5064052;28;20452;-19
2022/10/06 01:40:51;;;;;;;2.95;2.75;;;21.30;65.90;;;;;;5061526;28;20032;-19
2022/10/06 01:43:17;;;;;;;2.75;2.55;;;21.40;66.00;;;;;;5076408;28;20514;-19
2022/10/06 01:45:43;;;;;;;2.95;2.70;;;21.30;65.90;;;;;;5064753;28;20055;-18
2022/10/06 01:48:08;;;;;;;3.08;2.78;;;21.30;66.00;;;;;;5063029;28;20040;-19
2022/10/06 01:50:34;;;;;;;3.42;2.97;;;21.30;66.00;;;;;;5066417;28;20040;-19
2022/10/06 01:52:59;;;;;;;2.33;2.20;;;21.30;66.00;;;;;;5062119;28;20090;-19
2022/10/06 01:55:25;;;;;;;2.50;2.40;;;21.30;66.00;;;;;;5061763;28;20425;-19
2022/10/06 01:57:51;;;;;;;2.90;2.70;;;21.30;66.10;;;;;;5062100;28;20083;-18
2022/10/06 02:00:16;;;;;;;2.83;2.63;;;21.20;66.70;;;;;;5063024;28;20041;-19
2022/10/06 02:02:42;;;;;;;2.85;2.65;;;21.20;66.10;;;;;;5063984;28;20617;-19
2022/10/06 02:05:08;;;;;;;2.97;2.78;;;21.20;65.90;;;;;;5061216;28;20086;-18
2022/10/06 02:07:34;;;;;;;2.75;2.60;;;21.20;66.10;;;;;;5064305;28;20041;-19
2022/10/06 02:10:00;;;;;;;2.35;2.20;;;21.20;66.00;;;;;;5064111;28;20033;-19
2022/10/06 02:12:25;;;;;;;2.72;2.53;;;21.20;65.80;;;;;;5064400;28;20162;-19
2022/10/06 02:14:51;;;;;;;2.35;2.25;;;21.20;65.90;;;;;;5062442;28;20411;-19
2022/10/06 02:17:16;;;;;;;2.53;2.33;;;21.20;66.00;;;;;;5064915;28;20044;-19
2022/10/06 02:19:42;;;;;;;2.58;2.42;;;21.20;66.00;;;;;;5062631;28;20711;-19
2022/10/06 02:22:07;;;;;;;2.42;2.20;;;21.20;66.60;;;;;;5064913;28;20057;-19
2022/10/06 02:24:33;;;;;;;2.22;2.13;;;21.20;65.70;;;;;;5059621;28;20036;-18
2022/10/06 02:26:59;;;;;;;2.42;2.22;;;21.20;65.90;;;;;;5073048;28;20120;-20
2022/10/06 02:29:24;;;;;;;2.10;2.00;;;21.20;65.90;;;;;;5065887;28;20119;-19
2022/10/06 02:31:51;;;;;;;2.67;2.47;;;21.20;65.90;;;;;;5066482;28;20124;-19
2022/10/06 02:34:16;;;;;;;2.45;2.25;;;21.20;65.90;;;;;;5064142;28;20049;-19
2022/10/06 02:36:42;;;;;;;2.42;2.22;;;21.20;65.90;;;;;;5068764;28;20540;-19
2022/10/06 02:39:07;;;;;;;2.47;2.22;;;21.20;65.90;;;;;;5065914;28;20044;-19
2022/10/06 02:41:33;;;;;;;1.92;1.83;;;21.20;65.90;;;;;;5068331;28;20040;-19
2022/10/06 02:43:58;;;;;;;2.40;2.20;;;21.20;66.00;;;;;;5067002;28;20082;-19
2022/10/06 02:46:24;;;;;;;3.15;2.20;;;21.10;66.00;;;;;;5065512;28;20123;-19
2022/10/06 02:48:50;;;;;;;2.00;1.90;;;21.20;66.00;;;;;;5064920;28;20031;-18
2022/10/06 02:51:17;;;;;;;2.28;2.08;;;21.10;66.00;;;;;;5072574;28;20040;-18
2022/10/06 02:53:43;;;;;;;3.00;2.00;;;21.20;65.90;;;;;;5063739;28;20037;-19
2022/10/06 02:56:16;;;;;;;2.38;2.17;;;21.10;65.80;;;;;;5072768;28;20041;-19
2022/10/06 02:58:43;;;;;;;2.03;1.83;;;21.10;66.00;;;;;;5067974;28;20044;-20
2022/10/06 03:01:10;;;;;;;1.83;1.73;;;21.10;65.80;;;;;;5077286;28;20040;-19
2022/10/06 03:03:36;;;;;;;1.92;1.83;;;21.10;65.90;;;;;;5067955;28;20410;-19
2022/10/06 03:06:23;;;;;;;2.10;2.00;;;21.10;65.90;;;;;;5069118;28;20621;-19
2022/10/06 03:09:04;;;;;;;1.67;1.58;;;21.10;65.80;;;;;;5067498;28;20036;-19
2022/10/06 03:11:38;;;;;;;1.80;1.70;;;21.10;65.80;;;;;;5070280;28;20049;-19
2022/10/06 03:14:03;;;;;;;2.27;1.90;;;21.10;65.90;;;;;;5067524;28;20071;-18
2022/10/06 03:16:40;;;;;;;2.17;2.00;;;21.00;65.90;;;;;;5071258;28;20061;-23
2022/10/06 03:19:06;;;;;;;1.75;1.65;;;21.00;65.90;;;;;;5067999;28;20094;-24
2022/10/06 03:21:33;;;;;;;1.73;1.63;;;21.10;66.00;;;;;;5073012;28;20048;-19
2022/10/06 03:23:59;;;;;;;2.00;1.90;;;21.10;65.80;;;;;;5064015;28;20040;-18
2022/10/06 03:26:27;;;;;;;1.58;1.48;;;21.00;65.90;;;;;;5070147;28;20048;-18
2022/10/06 03:28:53;;;;;;;2.03;1.90;;;21.00;65.80;;;;;;5067975;28;20036;-18
2022/10/06 03:31:19;;;;;;;1.70;1.50;;;21.00;66.70;;;;;;5072208;28;20052;-19
2022/10/06 03:33:44;;;;;;;2.08;1.90;;;21.00;65.90;;;;;;5069108;28;20044;-19
2022/10/06 03:36:15;;;;;;;2.40;2.20;;;21.00;65.80;;;;;;5071735;28;20041;-19
2022/10/06 03:38:40;;;;;;;1.90;1.80;;;21.00;65.70;;;;;;5067570;28;20044;-20
2022/10/06 03:41:16;;;;;;;1.58;1.48;;;21.10;65.90;;;;;;5065436;28;20037;-20
2022/10/06 03:43:43;;;;;;;1.85;1.73;;;21.00;65.80;;;;;;5057243;28;20061;-18
2022/10/06 03:46:12;;;;;;;1.70;1.60;;;21.00;65.80;;;;;;5063245;28;20710;-19
2022/10/06 03:48:38;;;;;;;1.75;1.65;;;21.00;65.70;;;;;;5040791;28;20519;-19
2022/10/06 03:51:05;;;;;;;1.52;1.40;;;21.00;65.60;;;;;;5036589;28;20038;-19
2022/10/06 03:53:31;;;;;;;1.60;1.50;;;21.00;65.50;;;;;;5050090;28;20045;-20
2022/10/06 03:56:05;;;;;;;1.48;1.38;;;21.00;66.40;;;;;;5050360;28;20506;-18
2022/10/06 03:58:32;;;;;;;1.73;1.63;;;21.00;65.70;;;;;;5045960;28;20114;-18
2022/10/06 04:01:06;;;;;;;1.58;1.48;;;21.00;65.70;;;;;;5042995;28;20046;-19
2022/10/06 04:03:32;;;;;;;1.52;1.42;;;21.00;65.60;;;;;;5051672;28;20084;-19
2022/10/06 04:05:59;;;;;;;1.63;1.52;;;21.00;65.60;;;;;;5056148;28;20041;-18
2022/10/06 04:08:25;;;;;;;2.55;1.42;;;21.00;65.80;;;;;;5045542;28;20045;-19
2022/10/06 04:10:51;;;;;;;1.85;1.75;;;21.00;65.70;;;;;;5046043;28;20049;-19
2022/10/06 04:13:17;;;;;;;1.73;1.60;;;21.00;65.50;;;;;;5056276;28;20048;-19
2022/10/06 04:15:43;;;;;;;1.60;1.50;;;21.00;65.70;;;;;;5062665;28;20506;-19
2022/10/06 04:18:10;;;;;;;1.40;1.30;;;21.00;65.70;;;;;;5061184;28;20117;-19
2022/10/06 04:20:35;;;;;;;1.15;1.13;;;21.00;65.70;;;;;;5046340;28;20045;-19
2022/10/06 04:23:01;;;;;;;1.55;1.45;;;21.00;65.60;;;;;;5045279;28;20049;-19
2022/10/06 04:25:26;;;;;;;1.30;1.20;;;21.00;65.50;;;;;;5054559;28;20055;-19
2022/10/06 04:27:52;;;;;;;1.40;1.30;;;21.00;65.70;;;;;;5065399;28;20045;-18
2022/10/06 04:30:18;;;;;;;1.10;1.10;;;20.90;65.50;;;;;;5063255;28;20165;-18
2022/10/06 04:32:44;;;;;;;1.20;1.10;;;20.90;65.70;;;;;;5061740;28;20040;-20
2022/10/06 04:35:10;;;;;;;1.33;1.15;;;21.00;65.90;;;;;;5045164;28;20056;-28
2022/10/06 04:37:35;;;;;;;1.23;1.17;;;21.00;65.50;;;;;;5044844;28;20045;-19
2022/10/06 04:40:01;;;;;;;1.23;1.05;;;21.00;65.40;;;;;;5060223;28;20040;-19
2022/10/06 04:42:28;;;;;;;1.20;1.10;;;20.90;65.60;;;;;;5065369;28;20111;-19
2022/10/06 04:44:54;;;;;;;0.98;0.98;;;21.00;65.60;;;;;;5064304;28;20133;-19
2022/10/06 04:47:19;;;;;;;1.38;1.27;;;21.00;65.80;;;;;;5057900;28;20115;-19
2022/10/06 04:49:45;;;;;;;1.25;1.15;;;21.00;65.50;;;;;;5058925;28;20052;-19
2022/10/06 04:52:11;;;;;;;1.23;1.15;;;21.00;65.80;;;;;;5046678;28;20037;-19
2022/10/06 04:54:36;;;;;;;1.27;1.17;;;21.00;65.60;;;;;;5064321;28;20052;-19
2022/10/06 04:57:02;;;;;;;1.30;1.20;;;20.90;65.70;;;;;;5043124;28;20045;-19
2022/10/06 05:02:12;;;;;;;1.05;0.98;;;20.90;65.60;;;;;;5037574;28;20089;-19
2022/10/06 05:04:38;;;;;;;1.10;1.10;;;21.00;65.50;;;;;;5043616;28;20052;-19
2022/10/06 05:07:04;;;;;;;1.13;1.13;;;21.00;65.70;;;;;;5052432;28;20045;-19
2022/10/06 05:09:30;;;;;;;1.42;1.33;;;20.90;65.80;;;;;;5049094;28;20049;-19
2022/10/06 05:11:55;;;;;;;1.50;1.40;;;20.90;66.30;;;;;;5038628;28;20041;-20
2022/10/06 05:14:21;;;;;;;1.40;1.30;;;20.90;66.70;;;;;;5045465;28;20507;-19
2022/10/06 05:16:46;;;;;;;3.55;2.00;;;20.90;67.30;;;;;;5065007;28;20143;-24
2022/10/06 05:19:12;;;;;;;2.22;2.03;;;20.90;67.00;;;;;;5061551;28;20051;-18
2022/10/06 05:21:38;;;;;;;2.20;2.10;;;20.90;67.60;;;;;;4708114;28;10000069;-24
2022/10/06 05:24:03;;;;;;;1.80;1.70;;;20.90;68.40;;;;;;5049290;28;20049;-19
2022/10/06 05:26:30;;;;;;;2.08;1.88;;;20.90;67.30;;;;;;5053944;28;20040;-18
2022/10/06 05:28:56;;;;;;;1.52;1.42;;;21.00;67.40;;;;;;5058668;28;20135;-19
2022/10/06 05:31:23;;;;;;;1.70;1.60;;;20.90;67.70;;;;;;5049863;28;20566;-19
2022/10/06 05:33:48;;;;;;;1.85;1.75;;;20.90;68.60;;;;;;5043907;28;20037;-19
2022/10/06 05:36:16;;;;;;;1.98;1.88;;;20.80;67.90;;;;;;5044274;28;20044;-19
2022/10/06 05:38:42;;;;;;;2.97;2.10;;;20.90;68.00;;;;;;5031036;28;20037;-20
2022/10/06 05:41:12;;;;;;;2.13;2.03;;;20.90;68.10;;;;;;5024520;28;20045;-18
2022/10/06 05:43:38;;;;;;;2.08;1.67;;;20.90;68.10;;;;;;5030328;28;20106;-26
2022/10/06 05:46:06;;;;;;;2.47;1.58;;;20.90;68.70;;;;;;5030844;28;20504;-18
2022/10/06 05:48:32;;;;;;;5.82;1.60;;;20.90;68.80;;;;;;5036106;28;20076;-19
2022/10/06 05:51:05;;;;;;;2.92;1.48;;;20.90;68.70;;;;;;5061380;28;20474;-19
2022/10/06 05:53:31;;;;;;;1.75;1.65;;;20.90;68.40;;;;;;5043641;28;20102;-19
2022/10/06 05:56:12;;;;;;;3.25;2.08;;;20.90;68.60;;;;;;5054203;28;20716;-18
2022/10/06 05:58:42;;;;;;;3.05;1.80;;;20.90;68.60;;;;;;5037115;28;20045;-19
2022/10/06 06:01:24;;;;;;;1.92;1.73;;;20.90;68.40;;;;;;5041667;28;20415;-19
2022/10/06 06:04:01;;;;;;;2.38;1.77;;;20.90;68.30;;;;;;5048011;28;20422;-19
2022/10/06 06:06:32;;;;;;;1.55;1.45;;;20.90;68.30;;;;;;5040087;28;20048;-19
2022/10/06 06:08:59;;;;;;;1.92;1.60;;;20.90;68.10;;;;;;5044763;28;20137;-18
2022/10/06 06:11:26;;;;;;;2.50;1.42;;;20.90;68.20;;;;;;5044668;28;20041;-19
2022/10/06 06:14:03;;;;;;;1.65;1.50;;;20.90;67.90;;;;;;5042146;28;20041;-19
2022/10/06 06:16:32;;;;;;;1.20;1.10;;;20.80;67.90;;;;;;5055503;28;20074;-18
2022/10/06 06:18:58;;;;;;;1.85;1.40;;;20.80;67.90;;;;;;5053409;28;20087;-19
2022/10/06 06:21:25;;;;;;;1.88;1.42;;;20.80;67.80;;;;;;5044138;28;20033;-19
2022/10/06 06:23:50;;;;;;;2.25;2.00;;;20.90;67.70;;;;;;5056037;28;20048;-18
2022/10/06 06:26:23;;;;;;;2.38;1.45;;;20.90;68.10;;;;;;5063124;28;20036;-19
2022/10/06 06:28:53;;;;;;;5.18;1.63;;;20.80;68.10;;;;;;5055180;28;20072;-19
2022/10/06 06:31:21;;;;;;;1.92;1.83;;;20.80;67.80;;;;;;5043374;28;20044;-19
2022/10/06 06:33:49;;;;;;;2.03;1.50;;;20.90;67.70;;;;;;5066647;28;20052;-19
2022/10/06 06:36:16;;;;;;;2.00;1.58;;;20.90;68.50;;;;;;5056550;28;20065;-19
2022/10/06 06:38:42;;;;;;;3.47;1.70;;;20.80;68.50;;;;;;5047298;28;20442;-19
2022/10/06 06:41:14;;;;;;;2.05;1.23;;;20.90;67.80;;;;;;5046241;28;20556;-19
2022/10/06 06:43:41;;;;;;;1.33;1.23;;;20.80;67.70;;;;;;5060759;28;20121;-18
2022/10/06 06:46:06;;;;;;;1.42;1.33;;;20.80;67.60;;;;;;5068709;28;20033;-19
2022/10/06 06:48:34;;;;;;;1.70;1.48;;;20.80;68.50;;;;;;5054065;28;20060;-19
2022/10/06 06:51:00;;;;;;;1.50;1.33;;;20.80;67.60;;;;;;5044165;28;20568;-19
2022/10/06 06:53:25;;;;;;;1.58;1.48;;;20.80;67.70;;;;;;5043994;28;20041;-18
2022/10/06 06:55:51;;;;;;;1.65;1.40;;;20.80;67.60;;;;;;5056076;28;20056;-21
2022/10/06 06:58:18;;;;;;;1.40;1.20;;;20.90;67.80;;;;;;5048297;28;20503;-18
2022/10/06 07:00:43;;;;;;;4.93;1.48;;;20.80;67.80;;;;;;5045408;28;20045;-19
2022/10/06 07:03:13;;;;;;;1.65;1.55;;;20.80;67.60;;;;;;5045206;28;20170;-19
2022/10/06 07:05:39;;;;;;;2.15;1.27;;;20.80;67.60;;;;;;5047278;28;20106;-19
2022/10/06 07:08:08;;;;;;;3.17;1.20;;;20.80;67.50;;;;;;5053001;28;20453;-23
2022/10/06 07:10:36;;;;;;;2.75;1.40;;;20.80;67.70;;;;;;5052821;28;20198;-19
2022/10/06 07:13:02;;;;;;;1.40;0.93;;;20.80;68.40;;;;;;5045411;28;20112;-19
2022/10/06 07:26:29;;;;;;;1.50;1.40;;;20.80;67.60;;;;;;5028666;28;20083;-19
2022/10/06 07:28:58;;;;;;;1.50;1.40;;;20.80;67.60;;;;;;5051862;28;20032;-19
2022/10/06 07:31:32;;;;;;;1.10;1.00;;;20.80;67.70;;;;;;5046887;28;20563;-18
2022/10/06 07:33:59;;;;;;;1.30;1.13;;;20.80;67.60;;;;;;5053566;28;20503;-19
2022/10/06 07:36:25;;;;;;;1.08;0.98;;;20.80;67.70;;;;;;5067461;28;20453;-19
2022/10/06 07:38:50;;;;;;;1.30;1.20;;;20.80;67.60;;;;;;5057327;28;20519;-26
2022/10/06 07:41:16;;;;;;;2.05;1.08;;;20.80;67.60;;;;;;5050497;28;20537;-19
2022/10/06 07:43:41;;;;;;;1.50;0.95;;;20.80;67.70;;;;;;5061914;28;20048;-18
2022/10/06 07:46:10;;;;;;;1.52;1.23;;;20.80;67.50;;;;;;5064778;28;20087;-18
2022/10/06 07:48:37;;;;;;;1.10;0.95;;;20.80;67.50;;;;;;5045367;28;20094;-19
2022/10/06 07:51:05;;;;;;;1.38;0.90;;;20.80;67.50;;;;;;5047790;28;20548;-18
2022/10/06 07:53:31;;;;;;;1.13;1.02;;;20.80;67.50;;;;;;5044550;28;20064;-19
2022/10/06 07:56:03;;;;;;;1.10;0.90;;;20.80;67.50;;;;;;5051029;28;20429;-18
2022/10/06 07:58:28;;;;;;;1.13;1.02;;;20.80;67.50;;;;;;5065167;28;20449;-20
2022/10/06 08:00:54;;;;;;;1.98;0.98;;;20.70;67.40;;;;;;5051092;28;20080;-19
2022/10/06 08:03:20;;;;;;;0.90;0.80;;;20.70;68.20;;;;;;5045413;28;20541;-20
2022/10/06 08:05:55;;;;;;;1.20;1.10;;;20.70;67.50;;;;;;5061618;28;20033;-19
2022/10/06 08:08:21;;;;;;;0.82;0.80;;;20.70;67.40;;;;;;5052249;28;20520;-19
2022/10/06 08:10:51;;;;;;;1.35;1.13;;;20.80;67.30;;;;;;5045380;28;20049;-19
2022/10/06 08:13:17;;;;;;;2.47;0.93;;;20.80;67.30;;;;;;5045134;28;20048;-19
2022/10/06 08:15:42;;;;;;;1.15;1.05;;;20.70;67.30;;;;;;5061581;28;20049;-19
2022/10/06 08:18:08;;;;;;;1.10;0.95;;;20.70;67.30;;;;;;5045386;28;20041;-19
2022/10/06 08:20:34;;;;;;;0.90;0.90;;;20.80;67.20;;;;;;5046624;28;20419;-19
2022/10/06 08:22:59;;;;;;;1.00;0.77;;;20.70;67.40;;;;;;5060864;28;20032;-19
2022/10/06 08:25:25;;;;;;;2.28;0.93;;;20.70;67.30;;;;;;5054802;28;20041;-19
2022/10/06 08:27:50;;;;;;;3.65;1.40;;;20.80;67.30;;;;;;5046819;28;20037;-19
2022/10/06 08:30:16;;;;;;;1.13;0.93;;;20.80;67.30;;;;;;5047808;28;20093;-18
2022/10/06 08:32:49;;;;;;;1.83;0.76;;;20.80;67.10;;;;;;4966560;28;10000671;-19
2022/10/06 08:35:15;;;;;;;0.70;0.70;;;20.80;67.00;;;;;;5054302;28;20257;-18
2022/10/06 08:37:41;;;;;;;1.92;0.95;;;20.80;67.20;;;;;;5035787;28;20041;-21
2022/10/06 08:40:09;;;;;;;0.80;0.80;;;20.80;67.10;;;;;;5056453;28;20071;-21
2022/10/06 08:42:49;;;;;;;0.73;0.73;;;20.80;67.10;;;;;;5041203;28;20041;-19
2022/10/06 08:45:25;;;;;;;1.00;0.90;;;20.80;67.00;;;;;;5027718;28;20148;-19
2022/10/06 08:48:01;;;;;;;1.17;1.08;;;20.80;67.00;;;;;;5035871;28;20042;-18
2022/10/06 08:50:28;;;;;;;0.93;0.90;;;20.80;67.00;;;;;;5039156;28;20099;-19
2022/10/06 08:53:09;;;;;;;1.30;1.20;;;20.80;67.00;;;;;;5038822;28;20087;-19
2022/10/06 08:55:46;;;;;;;1.35;0.90;;;20.80;66.80;;;;;;5039642;28;20041;-19
2022/10/06 08:58:21;;;;;;;1.58;0.90;;;20.90;66.70;;;;;;5040069;28;20049;-19
2022/10/06 09:00:47;;;;;;;1.52;0.80;;;21.00;66.70;;;;;;5042447;28;20507;-20
2022/10/06 09:03:21;;;;;;;0.95;0.80;;;21.00;66.50;;;;;;5048730;28;20067;-19
2022/10/06 09:05:47;;;;;;;0.70;0.60;;;21.00;66.40;;;;;;5028013;28;20052;-19
2022/10/06 09:08:23;;;;;;;1.02;1.02;;;21.00;66.40;;;;;;5055807;28;20049;-19
2022/10/06 09:11:07;;;;;;;1.63;1.00;;;21.00;66.50;;;;;;5059012;28;20415;-19
2022/10/06 09:13:54;;;;;;;1.25;0.90;;;21.00;66.30;;;;;;5057340;28;20139;-18
2022/10/06 09:16:26;;;;;;;0.85;0.73;;;21.00;66.50;;;;;;5059016;28;20127;-19
2022/10/06 09:19:14;;;;;;;1.00;1.00;;;21.00;66.30;;;;;;5043865;28;20037;-19
2022/10/06 09:21:44;;;;;;;2.15;0.85;;;21.00;67.10;;;;;;5040818;28;20051;-19
2022/10/06 09:24:17;;;;;;;0.95;0.95;;;21.00;66.30;;;;;;5056177;28;21072;-20
2022/10/06 09:26:44;;;;;;;0.80;0.80;;;21.00;66.20;;;;;;5030834;28;20044;-19
2022/10/06 09:29:10;;;;;;;0.90;0.77;;;21.10;66.30;;;;;;5041271;28;20044;-18
2022/10/06 09:31:36;;;;;;;0.73;0.73;;;21.00;66.30;;;;;;5056197;28;20423;-18
2022/10/06 09:34:18;;;;;;;0.80;0.80;;;21.10;66.40;;;;;;5050343;28;20434;-19
2022/10/06 09:37:08;;;;;;;0.60;0.60;;;21.10;66.10;;;;;;5057711;28;20131;-19
2022/10/06 09:39:37;;;;;;;0.80;0.70;;;21.10;66.20;;;;;;5055428;28;20201;-19
2022/10/06 09:42:20;;;;;;;1.25;0.60;;;21.10;66.10;;;;;;5051030;28;20040;-18
2022/10/06 09:44:56;;;;;;;2.00;0.68;;;21.10;66.20;;;;;;5050256;28;20036;-19
2022/10/06 09:47:25;;;;;;;1.17;0.60;;;21.10;66.10;;;;;;5046737;28;20051;-19
2022/10/06 09:50:15;;;;;;;3.75;0.75;;;21.10;66.10;;;;;;5061086;28;20052;-27
2022/10/06 09:52:41;;;;;;;2.72;0.80;;;21.10;66.00;;;;;;5038453;28;20068;-19
2022/10/06 09:55:11;;;;;;;1.65;0.50;;;21.10;66.10;;;;;;5042320;28;20065;-19
2022/10/06 09:57:37;;;;;;;0.95;0.80;;;21.10;66.00;;;;;;5064009;28;20048;-19
2022/10/06 10:00:04;;;;;;;1.00;0.80;;;21.10;66.10;;;;;;5055257;28;20044;-19
2022/10/06 10:02:35;;;;;;;2.38;0.75;;;21.20;66.10;;;;;;5044493;28;20053;-19
2022/10/06 10:05:08;;;;;;;1.15;0.60;;;21.20;65.90;;;;;;5067713;28;20063;-20
2022/10/06 10:07:34;;;;;;;1.77;0.60;;;21.20;66.00;;;;;;5056254;28;20559;-19
2022/10/06 10:10:20;;;;;;;0.57;0.57;;;21.20;65.90;;;;;;5062422;28;20041;-24
2022/10/06 10:12:52;;;;;;;1.35;0.60;;;21.20;65.80;;;;;;5042556;28;20042;-19
2022/10/06 10:15:18;;;;;;;0.60;0.57;;;21.30;65.80;;;;;;5045537;28;20182;-19
2022/10/06 10:17:52;;;;;;;0.93;0.80;;;21.30;65.80;;;;;;5056238;28;20123;-19
2022/10/06 10:20:23;;;;;;;0.60;0.60;;;21.30;65.80;;;;;;5055931;28;20094;-19
2022/10/06 10:22:50;;;;;;;1.10;0.57;;;21.30;65.70;;;;;;5061489;28;20037;-18
2022/10/06 10:25:48;;;;;;;0.98;0.75;;;21.30;65.70;;;;;;5050720;28;20047;-19
2022/10/06 10:28:45;;;;;;;1.08;0.98;;;21.30;65.60;;;;;;5048061;28;20099;-20
2022/10/06 10:31:19;;;;;;;0.73;0.60;;;21.30;65.70;;;;;;5047356;28;20071;-19
2022/10/06 10:33:54;;;;;;;0.60;0.60;;;21.30;65.50;;;;;;5053964;28;20060;-18
2022/10/06 10:36:20;;;;;;;0.98;0.60;;;21.30;65.50;;;;;;5047137;28;20036;-19
2022/10/06 10:38:46;;;;;;;0.60;0.57;;;21.30;65.50;;;;;;5034704;28;20060;-19
2022/10/06 10:41:18;;;;;;;0.40;0.40;;;21.40;65.50;;;;;;5083464;28;20383;-19
2022/10/06 10:43:50;;;;;;;0.93;0.73;;;21.40;65.50;;;;;;5057234;28;20040;-19
2022/10/06 10:46:47;;;;;;;0.68;0.60;;;21.40;65.50;;;;;;5081026;28;20044;-20
2022/10/06 10:49:18;;;;;;;1.92;0.88;;;21.40;65.50;;;;;;5060015;28;20028;-19
2022/10/06 10:52:30;;;;;;;0.68;0.63;;;21.40;65.40;;;;;;5058198;28;20132;-19
2022/10/06 10:55:05;;;;;;;0.93;0.60;;;21.40;65.40;;;;;;5038242;28;20063;-19
2022/10/06 10:57:36;;;;;;;0.75;0.70;;;21.40;65.40;;;;;;5076705;28;20123;-19
2022/10/06 11:00:06;;;;;;;1.02;0.40;;;21.40;66.10;;;;;;5042988;28;20132;-19
2022/10/06 11:02:34;;;;;;;0.30;0.30;;;21.40;65.30;;;;;;5079171;28;20048;-19
2022/10/06 11:05:32;;;;;;;0.57;0.45;;;21.40;65.30;;;;;;5050676;28;20127;-19
2022/10/06 11:08:03;;;;;;;0.80;0.38;;;21.40;65.30;;;;;;4963757;28;20047;-19
2022/10/06 11:10:42;;;;;;;0.60;0.52;;;21.40;65.30;;;;;;4964408;28;20087;-19
2022/10/06 11:13:45;;;;;;;0.60;0.60;;;21.50;65.30;;;;;;4962750;28;20094;-20
2022/10/06 11:16:16;;;;;;;0.60;0.60;;;21.50;65.30;;;;;;4956716;28;20050;-19
2022/10/06 11:19:01;;;;;;;0.73;0.50;;;21.50;65.30;;;;;;4272024;28;10000855;-18
2022/10/06 11:21:35;;;;;;;0.63;0.60;;;21.50;65.20;;;;;;4972974;28;20086;-19
2022/10/06 11:24:00;;;;;;;;;;;21.50;65.20;;;;;;4927134;28;20130;-19
2022/10/06 11:26:55;;;;;;;0.75;0.68;;;21.60;65.20;;;;;;4955113;28;20416;-19
2022/10/06 11:29:37;;;;;;;4.35;0.70;;;21.60;65.20;;;;;;4927772;28;20098;-19
2022/10/06 11:32:24;;;;;;;0.63;0.50;;;21.60;65.20;;;;;;4935939;28;20047;-19
2022/10/06 11:34:50;;;;;;;0.68;0.43;;;21.60;65.20;;;;;;4942611;28;20130;-19
2022/10/06 11:37:37;;;;;;;0.47;0.47;;;21.60;65.10;;;;;;4929506;28;20089;-20
2022/10/06 11:40:34;;;;;;;0.55;0.43;;;21.60;65.10;;;;;;4945031;28;20128;-19
2022/10/06 11:43:22;;;;;;;0.30;0.30;;;21.60;65.90;;;;;;4946358;28;20597;-19
2022/10/06 11:46:08;;;;;;;0.40;0.40;;;21.60;65.10;;;;;;5028879;28;20049;-19
2022/10/06 11:48:34;;;;;;;0.60;0.40;;;21.60;65.10;;;;;;5072705;28;20048;-20
2022/10/06 11:51:21;;;;;;;0.55;0.45;;;21.60;65.00;;;;;;5064305;28;20522;-19
2022/10/06 11:53:47;;;;;;;0.47;0.40;;;21.60;64.90;;;;;;5049985;28;20061;-19
2022/10/06 11:56:15;;;;;;;0.40;0.40;;;21.60;65.00;;;;;;5042439;28;20191;-19
2022/10/06 11:58:53;;;;;;;0.65;0.30;;;21.60;65.00;;;;;;5039586;28;20169;-20
2022/10/06 12:01:30;;;;;;;0.55;0.43;;;21.70;65.00;;;;;;5063210;28;20060;-19
2022/10/06 12:04:07;;;;;;;0.40;0.30;;;21.70;65.00;;;;;;5053802;28;20045;-19
2022/10/06 12:06:44;;;;;;;0.68;0.40;;;21.70;65.00;;;;;;5045017;28;20094;-19
2022/10/06 12:09:29;;;;;;;0.45;0.35;;;21.70;64.90;;;;;;5034155;28;20730;-19
2022/10/06 12:11:56;;;;;;;0.70;0.40;;;21.70;65.00;;;;;;5035021;28;20045;-19
2022/10/06 12:14:45;;;;;;;0.45;0.30;;;21.70;64.90;;;;;;5037711;28;20056;-19
2022/10/06 12:17:28;;;;;;;0.88;0.55;;;21.70;64.90;;;;;;5028828;28;20133;-19
2022/10/06 12:19:56;;;;;;;0.50;0.50;;;21.70;64.90;;;;;;5042231;28;20065;-19
2022/10/06 12:22:30;;;;;;;0.47;0.40;;;21.70;64.90;;;;;;5044872;28;20511;-19
2022/10/06 12:24:56;;;;;;;;;;;21.70;64.70;;;;;;5045850;28;20063;-18
2022/10/06 12:27:21;;;;;;;0.43;0.40;;;21.70;64.70;;;;;;5057289;28;19916;-20
2022/10/06 12:29:54;;;;;;;0.57;0.43;;;21.70;64.80;;;;;;5056667;28;20036;-19
2022/10/06 12:32:42;;;;;;;0.35;0.30;;;21.70;64.70;;;;;;5056491;28;20504;-19
2022/10/06 12:35:14;;;;;;;0.30;0.30;;;21.70;64.70;;;;;;5052800;28;20042;-19
2022/10/06 12:37:40;;;;;;;1.42;0.40;;;21.70;64.60;;;;;;5053107;28;20073;-19
2022/10/06 12:40:45;;;;;;;0.82;0.55;;;21.70;64.70;;;;;;5058701;28;20048;-18
2022/10/06 12:43:13;;;;;;;;;;;21.70;64.70;;;;;;5036127;28;20055;-19
2022/10/06 12:45:59;;;;;;;1.35;0.25;;;21.70;64.60;;;;;;5031549;28;19921;-19
2022/10/06 12:48:45;;;;;;;1.30;0.40;;;21.80;64.70;;;;;;5038984;28;20060;-19
2022/10/06 12:51:33;;;;;;;2.15;0.30;;;21.70;64.60;;;;;;5065455;28;20035;-19
2022/10/06 12:54:21;;;;;;;0.50;0.40;;;21.80;64.70;;;;;;5057180;28;20070;-19
2022/10/06 12:57:15;;;;;;;0.50;0.30;;;21.80;64.60;;;;;;5052375;28;20060;-19
2022/10/06 12:59:41;;;;;;;0.88;0.35;;;21.80;64.50;;;;;;5061558;28;20048;-19
2022/10/06 13:02:08;;;;;;;0.63;0.50;;;21.70;65.30;;;;;;5066718;28;20032;-22
2022/10/06 13:04:37;;;;;;;0.47;0.40;;;21.70;64.40;;;;;;5039954;28;20076;-19
2022/10/06 13:07:15;;;;;;;0.70;0.50;;;21.80;64.50;;;;;;5081019;28;20036;-20
2022/10/06 13:09:40;;;;;;;0.60;0.32;;;21.80;65.20;;;;;;5061466;28;20048;-19
2022/10/06 13:12:23;;;;;;;0.30;0.30;;;21.70;64.50;;;;;;5065808;28;20074;-19
2022/10/06 13:15:13;;;;;;;0.50;0.40;;;21.80;64.50;;;;;;5063759;28;20044;-19
2022/10/06 13:18:15;;;;;;;1.00;0.30;;;21.80;64.50;;;;;;5041299;28;20044;-19
2022/10/06 13:20:48;;;;;;;0.77;0.30;;;21.80;64.50;;;;;;5058484;28;20068;-19